createdAt,value
2022-11-20T00:00:56.319Z,-0.9
2022-11-20T00:02:13.358Z,-1
2022-11-20T00:03:30.452Z,-1
2022-11-20T00:04:47.341Z,-1
2022-11-20T00:06:04.281Z,-0.9
2022-11-20T00:07:21.371Z,-0.9
2022-11-20T00:08:38.281Z,-0.7
2022-11-20T00:09:55.314Z,-0.7
2022-11-20T00:11:15.698Z,-0.8
2022-11-20T00:12:29.278Z,-0.8
2022-11-20T00:13:46.316Z,-1
2022-11-20T00:15:03.390Z,-1.3
2022-11-20T00:16:20.341Z,-1.3
2022-11-20T00:17:37.338Z,-1.4
2022-11-20T00:18:54.384Z,-1.5
2022-11-20T00:20:11.345Z,-1.6
2022-11-20T00:21:28.300Z,-1.7
2022-11-20T00:22:45.350Z,-1.8
2022-11-20T00:24:02.301Z,-1.7
2022-11-20T00:25:19.303Z,-1.6
2022-11-20T00:26:36.293Z,-1.3
2022-11-20T00:27:53.359Z,-1.3
2022-11-20T00:29:10.298Z,-1.3
2022-11-20T00:30:27.304Z,-1.2
2022-11-20T00:31:44.330Z,-1.2
2022-11-20T00:33:01.373Z,-1.2
2022-11-20T00:34:18.319Z,-1.1
2022-11-20T00:35:35.309Z,-1.1
2022-11-20T00:36:52.309Z,-1
2022-11-20T00:38:09.344Z,-1.2
2022-11-20T00:39:26.320Z,-1.5
2022-11-20T00:40:43.321Z,-1.7
2022-11-20T00:42:00.327Z,-1.9
2022-11-20T00:43:17.339Z,-2.1
2022-11-20T00:44:34.354Z,-2.2
2022-11-20T00:45:51.361Z,-2.2
2022-11-20T00:47:08.403Z,-2.1
2022-11-20T00:48:25.353Z,-2.1
2022-11-20T00:49:42.338Z,-2
2022-11-20T00:50:59.331Z,-1.9
2022-11-20T00:52:16.330Z,-1.7
2022-11-20T00:53:33.365Z,-1.7
2022-11-20T00:54:50.366Z,-1.7
2022-11-20T00:56:07.345Z,-1.7
2022-11-20T00:57:24.341Z,-1.9
2022-11-20T00:58:41.483Z,-1.9
2022-11-20T00:59:58.338Z,-2.1
2022-11-20T01:01:15.527Z,-2.1
2022-11-20T01:02:32.377Z,-2
2022-11-20T01:03:49.379Z,-1.8
2022-11-20T01:05:06.346Z,-1.7
2022-11-20T01:06:23.345Z,-1.4
2022-11-20T01:07:40.353Z,-1.2
2022-11-20T01:08:57.377Z,-1.1
2022-11-20T01:10:14.731Z,-1
2022-11-20T01:11:32.369Z,-1.1
2022-11-20T01:12:49.368Z,-1.2
2022-11-20T01:14:06.387Z,-1.2
2022-11-20T01:15:23.369Z,-1.4
2022-11-20T01:16:40.366Z,-1.6
2022-11-20T01:17:57.372Z,-1.9
2022-11-20T01:19:17.633Z,-2
2022-11-20T01:20:31.382Z,-2.1
2022-11-20T01:21:48.384Z,-2.1
2022-11-20T01:23:05.380Z,-2
2022-11-20T01:24:22.458Z,-1.9
2022-11-20T01:25:39.399Z,-1.8
2022-11-20T01:26:56.402Z,-1.6
2022-11-20T01:28:13.380Z,-1.5
2022-11-20T01:29:30.442Z,-1.3
2022-11-20T01:30:47.386Z,-1.2
2022-11-20T01:32:04.383Z,-1.1
2022-11-20T01:33:21.377Z,-1.1
2022-11-20T01:34:38.430Z,-1.1
2022-11-20T01:35:55.469Z,-1.2
2022-11-20T01:37:12.402Z,-1.1
2022-11-20T01:38:29.383Z,-1.1
2022-11-20T01:39:46.431Z,-1.1
2022-11-20T01:41:03.393Z,-1.2
2022-11-20T01:42:20.391Z,-1.1
2022-11-20T01:43:37.402Z,-1.1
2022-11-20T01:44:54.426Z,-1
2022-11-20T01:46:11.434Z,-1
2022-11-20T01:47:28.403Z,-1.2
2022-11-20T01:48:45.395Z,-1.5
2022-11-20T01:50:02.505Z,-1.8
2022-11-20T01:51:19.464Z,-2.1
2022-11-20T01:52:36.401Z,-2.3
2022-11-20T01:53:53.408Z,-2.5
2022-11-20T01:55:10.412Z,-2.6
2022-11-20T01:56:27.439Z,-2.7
2022-11-20T01:57:44.420Z,-2.7
2022-11-20T01:59:01.430Z,-2.7
2022-11-20T02:00:18.470Z,-2.8
2022-11-20T02:01:35.568Z,-2.7
2022-11-20T02:02:52.424Z,-2.6
2022-11-20T02:04:09.425Z,-2.5
2022-11-20T02:05:26.417Z,-2.4
2022-11-20T02:06:43.453Z,-2.2
2022-11-20T02:08:00.419Z,-2.1
2022-11-20T02:09:17.421Z,-2.1
2022-11-20T02:10:34.430Z,-2.1
2022-11-20T02:11:51.453Z,-2.1
2022-11-20T02:13:08.437Z,-2.1
2022-11-20T02:14:25.433Z,-2.2
2022-11-20T02:15:42.470Z,-2.1
2022-11-20T02:16:59.478Z,-2.2
2022-11-20T02:18:16.444Z,-2.3
2022-11-20T02:19:33.434Z,-2.5
2022-11-20T02:20:50.468Z,-2.6
2022-11-20T02:22:07.443Z,-2.6
2022-11-20T02:23:24.446Z,-2.7
2022-11-20T02:24:41.459Z,-2.8
2022-11-20T02:25:58.513Z,-2.7
2022-11-20T02:27:15.503Z,-2.6
2022-11-20T02:28:32.444Z,-2.4
2022-11-20T02:29:49.452Z,-2.3
2022-11-20T02:31:06.454Z,-2.1
2022-11-20T02:32:23.943Z,-1.9
2022-11-20T02:33:40.449Z,-1.8
2022-11-20T02:34:57.457Z,-1.8
2022-11-20T02:36:14.479Z,-1.7
2022-11-20T02:37:31.581Z,-1.6
2022-11-20T02:38:48.472Z,-1.5
2022-11-20T02:40:05.513Z,-1.3
2022-11-20T02:41:22.465Z,-1.2
2022-11-20T02:42:39.481Z,-1.2
2022-11-20T02:43:56.616Z,-1.1
2022-11-20T02:45:13.532Z,-1
2022-11-20T02:46:30.462Z,-1.1
2022-11-20T02:47:47.475Z,-1.2
2022-11-20T02:49:04.530Z,-1.3
2022-11-20T02:50:21.496Z,-1.3
2022-11-20T02:51:38.478Z,-1.3
2022-11-20T02:52:55.483Z,-1.3
2022-11-20T02:54:12.537Z,-1.4
2022-11-20T02:55:29.486Z,-1.4
2022-11-20T02:56:46.487Z,-1.5
2022-11-20T02:58:03.483Z,-1.4
2022-11-20T02:59:20.811Z,-1.2
2022-11-20T03:00:37.510Z,-1.1
2022-11-20T03:01:54.699Z,-0.9
2022-11-20T03:03:11.492Z,-0.8
2022-11-20T03:04:28.487Z,-0.9
2022-11-20T03:05:45.492Z,-0.9
2022-11-20T03:07:02.601Z,-1
2022-11-20T03:08:19.509Z,-1
2022-11-20T03:09:36.508Z,-1.1
2022-11-20T03:10:53.510Z,-1.1
2022-11-20T03:12:10.537Z,-1
2022-11-20T03:13:27.559Z,-0.9
2022-11-20T03:14:46.766Z,-0.9
2022-11-20T03:16:01.546Z,-0.9
2022-11-20T03:17:18.504Z,-0.9
2022-11-20T03:18:35.568Z,-0.9
2022-11-20T03:19:52.501Z,-0.9
2022-11-20T03:21:09.510Z,-0.9
2022-11-20T03:22:26.514Z,-1.1
2022-11-20T03:23:43.542Z,-1.1
2022-11-20T03:25:00.536Z,-1.3
2022-11-20T03:26:17.523Z,-1.4
2022-11-20T03:27:34.606Z,-1.5
2022-11-20T03:28:51.577Z,-1.6
2022-11-20T03:30:08.681Z,-1.7
2022-11-20T03:31:25.519Z,-1.9
2022-11-20T03:32:42.518Z,-2
2022-11-20T03:33:59.547Z,-2.1
2022-11-20T03:35:16.530Z,-2.1
2022-11-20T03:36:34.033Z,-2.1
2022-11-20T03:37:50.543Z,-2
2022-11-20T03:39:07.549Z,-1.8
2022-11-20T03:40:24.539Z,-1.7
2022-11-20T03:41:41.596Z,-1.5
2022-11-20T03:42:58.536Z,-1.4
2022-11-20T03:44:15.533Z,-1.3
2022-11-20T03:45:32.553Z,-1.2
2022-11-20T03:46:49.593Z,-1.3
2022-11-20T03:48:06.550Z,-1.3
2022-11-20T03:49:23.819Z,-1.3
2022-11-20T03:50:40.611Z,-1.2
2022-11-20T03:51:57.568Z,-1.2
2022-11-20T03:53:14.550Z,-1.2
2022-11-20T03:54:31.548Z,-1.2
2022-11-20T03:55:48.543Z,-1.3
2022-11-20T03:57:05.581Z,-1.3
2022-11-20T03:58:22.557Z,-1.3
2022-11-20T03:59:39.617Z,-1.3
2022-11-20T04:00:56.584Z,-1.3
2022-11-20T04:02:13.603Z,-1.4
2022-11-20T04:03:30.576Z,-1.3
2022-11-20T04:04:47.591Z,-1.2
2022-11-20T04:06:04.556Z,-1.2
2022-11-20T04:07:21.614Z,-1.2
2022-11-20T04:08:38.559Z,-1.1
2022-11-20T04:09:55.571Z,-1
2022-11-20T04:11:12.570Z,-1.1
2022-11-20T04:12:29.595Z,-1
2022-11-20T04:13:46.569Z,-1
2022-11-20T04:15:03.608Z,-1.1
2022-11-20T04:16:20.583Z,-1.3
2022-11-20T04:17:37.635Z,-1.4
2022-11-20T04:18:54.585Z,-1.6
2022-11-20T04:20:11.690Z,-1.6
2022-11-20T04:21:28.660Z,-1.6
2022-11-20T04:22:45.639Z,-1.6
2022-11-20T04:24:02.646Z,-1.8
2022-11-20T04:25:19.614Z,-1.9
2022-11-20T04:26:36.587Z,-2.1
2022-11-20T04:27:53.615Z,-2.1
2022-11-20T04:29:10.589Z,-2.2
2022-11-20T04:30:27.607Z,-2.2
2022-11-20T04:31:44.607Z,-2.3
2022-11-20T04:33:01.635Z,-2.4
2022-11-20T04:34:18.592Z,-2.5
2022-11-20T04:35:35.603Z,-2.4
2022-11-20T04:36:52.592Z,-2.5
2022-11-20T04:38:09.635Z,-2.5
2022-11-20T04:39:26.607Z,-2.3
2022-11-20T04:40:43.633Z,-2.2
2022-11-20T04:42:00.608Z,-2.1
2022-11-20T04:43:17.720Z,-2
2022-11-20T04:44:34.642Z,-2
2022-11-20T04:45:51.638Z,-1.9
2022-11-20T04:47:08.613Z,-1.9
2022-11-20T04:48:25.645Z,-1.8
2022-11-20T04:49:42.695Z,-1.7
2022-11-20T04:50:59.617Z,-1.7
2022-11-20T04:52:16.629Z,-1.6
2022-11-20T04:53:33.663Z,-1.5
2022-11-20T04:54:50.659Z,-1.4
2022-11-20T04:56:07.664Z,-1.4
2022-11-20T04:57:24.624Z,-1.4
2022-11-20T04:58:41.629Z,-1.3
2022-11-20T04:59:58.651Z,-1.4
2022-11-20T05:01:15.785Z,-1.7
2022-11-20T05:02:32.629Z,-2.1
2022-11-20T05:03:49.632Z,-2.5
2022-11-20T05:05:06.747Z,-2.9
2022-11-20T05:06:23.639Z,-3
2022-11-20T05:07:40.707Z,-3.1
2022-11-20T05:08:57.672Z,-2.9
2022-11-20T05:10:14.647Z,-2.7
2022-11-20T05:11:31.646Z,-2.7
2022-11-20T05:12:48.642Z,-2.7
2022-11-20T05:14:05.673Z,-2.7
2022-11-20T05:15:22.648Z,-2.6
2022-11-20T05:16:39.654Z,-2.5
2022-11-20T05:17:56.650Z,-2.4
2022-11-20T05:19:13.711Z,-2.3
2022-11-20T05:20:30.658Z,-2.3
2022-11-20T05:21:47.669Z,-2.3
2022-11-20T05:23:04.673Z,-2.1
2022-11-20T05:24:22.069Z,-2.2
2022-11-20T05:25:38.657Z,-2.3
2022-11-20T05:26:55.659Z,-2.3
2022-11-20T05:28:12.661Z,-2.5
2022-11-20T05:29:29.685Z,-2.5
2022-11-20T05:30:46.722Z,-2.4
2022-11-20T05:32:03.777Z,-2.3
2022-11-20T05:33:20.667Z,-2.1
2022-11-20T05:34:37.665Z,-2
2022-11-20T05:35:54.734Z,-1.9
2022-11-20T05:37:11.679Z,-1.8
2022-11-20T05:38:28.699Z,-1.7
2022-11-20T05:39:45.670Z,-1.6
2022-11-20T05:41:02.754Z,-1.6
2022-11-20T05:42:19.702Z,-1.6
2022-11-20T05:43:36.685Z,-1.6
2022-11-20T05:44:53.677Z,-1.5
2022-11-20T05:46:10.705Z,-1.5
2022-11-20T05:47:27.716Z,-1.6
2022-11-20T05:48:44.686Z,-1.7
2022-11-20T05:50:01.964Z,-1.9
2022-11-20T05:51:18.752Z,-2.1
2022-11-20T05:52:35.683Z,-2.3
2022-11-20T05:53:52.719Z,-2.3
2022-11-20T05:55:09.693Z,-2.4
2022-11-20T05:56:26.762Z,-2.5
2022-11-20T05:57:43.696Z,-2.6
2022-11-20T05:59:00.706Z,-2.7
2022-11-20T06:00:17.707Z,-2.8
2022-11-20T06:01:34.757Z,-2.8
2022-11-20T06:02:51.766Z,-3
2022-11-20T06:04:08.767Z,-3.1
2022-11-20T06:05:25.712Z,-3.2
2022-11-20T06:06:42.698Z,-3.2
2022-11-20T06:07:59.702Z,-3.1
2022-11-20T06:09:16.729Z,-3
2022-11-20T06:10:33.704Z,-3
2022-11-20T06:11:50.707Z,-3
2022-11-20T06:13:07.712Z,-3.1
2022-11-20T06:14:24.743Z,-3.1
2022-11-20T06:15:41.761Z,-3.1
2022-11-20T06:16:58.722Z,-3.2
2022-11-20T06:18:15.718Z,-3.2
2022-11-20T06:19:32.825Z,-3.2
2022-11-20T06:20:49.717Z,-3
2022-11-20T06:22:06.751Z,-3
2022-11-20T06:23:23.791Z,-2.9
2022-11-20T06:24:40.724Z,-3
2022-11-20T06:25:57.733Z,-2.9
2022-11-20T06:27:14.729Z,-2.9
2022-11-20T06:28:31.760Z,-2.8
2022-11-20T06:29:48.752Z,-2.6
2022-11-20T06:31:05.761Z,-2.4
2022-11-20T06:32:22.800Z,-2.1
2022-11-20T06:33:39.755Z,-1.7
2022-11-20T06:34:56.737Z,-1.3
2022-11-20T06:36:13.740Z,-0.9
2022-11-20T06:37:30.799Z,-0.5
2022-11-20T06:38:47.746Z,-1
2022-11-20T06:40:04.805Z,-0.4
2022-11-20T06:41:21.739Z,0.3
2022-11-20T06:42:38.743Z,0.7
2022-11-20T06:43:55.774Z,1.2
2022-11-20T06:45:12.755Z,1.7
2022-11-20T06:46:29.746Z,2.1
2022-11-20T06:47:46.757Z,2.5
2022-11-20T06:49:03.783Z,2.7
2022-11-20T06:50:20.755Z,2.9
2022-11-20T06:51:37.821Z,3.2
2022-11-20T06:52:54.774Z,3.6
2022-11-20T06:54:11.763Z,4
2022-11-20T06:55:28.781Z,4.4
2022-11-20T06:56:45.850Z,4.5
2022-11-20T06:58:02.760Z,4.4
2022-11-20T06:59:20.111Z,4.2
2022-11-20T07:00:36.813Z,3.9
2022-11-20T07:01:53.828Z,3.9
2022-11-20T07:03:10.765Z,3.9
2022-11-20T07:04:27.774Z,4
2022-11-20T07:05:44.781Z,4.2
2022-11-20T07:07:01.867Z,4.3
2022-11-20T07:08:18.811Z,4.7
2022-11-20T07:09:35.819Z,5.2
2022-11-20T07:10:52.780Z,5.4
2022-11-20T07:12:09.788Z,5.4
2022-11-20T07:13:26.785Z,5.5
2022-11-20T07:14:44.206Z,5.8
2022-11-20T07:16:00.797Z,5.7
2022-11-20T07:17:17.786Z,5.5
2022-11-20T07:18:34.789Z,5.6
2022-11-20T07:19:51.828Z,5.7
2022-11-20T07:21:08.790Z,6.2
2022-11-20T07:22:25.795Z,6.6
2022-11-20T07:23:42.850Z,6.8
2022-11-20T07:24:59.793Z,6.8
2022-11-20T07:26:16.804Z,6.9
2022-11-20T07:27:33.842Z,7
2022-11-20T07:28:50.801Z,7.3
2022-11-20T07:30:07.822Z,7.1
2022-11-20T07:35:07.006Z,6.1
2022-11-20T07:36:23.811Z,5.6
2022-11-20T07:37:40.824Z,5
2022-11-20T07:38:57.844Z,4.6
2022-11-20T07:40:14.818Z,4.4
2022-11-20T07:41:31.824Z,4.5
2022-11-20T07:42:48.842Z,4.8
2022-11-20T07:44:05.859Z,5.2
2022-11-20T07:45:23.012Z,5.3
2022-11-20T07:46:39.832Z,5.1
2022-11-20T07:47:56.948Z,4.9
2022-11-20T07:49:13.829Z,5
2022-11-20T07:50:30.874Z,5.4
2022-11-20T07:51:51.592Z,5.7
2022-11-20T07:53:04.835Z,6.2
2022-11-20T07:54:21.848Z,6.4
2022-11-20T07:55:38.881Z,6.5
2022-11-20T07:56:55.830Z,6.9
2022-11-20T07:58:12.844Z,7.1
2022-11-20T07:59:29.849Z,7
2022-11-20T08:00:46.905Z,7.1
2022-11-20T08:02:03.876Z,6.7
2022-11-20T08:03:24.850Z,6.2
2022-11-20T08:04:37.845Z,5.6
2022-11-20T08:05:54.879Z,5.4
2022-11-20T08:07:11.931Z,5.7
2022-11-20T08:08:31.240Z,6
2022-11-20T08:09:45.860Z,6.1
2022-11-20T08:11:02.884Z,6.1
2022-11-20T08:12:19.870Z,5.9
2022-11-20T08:13:36.865Z,6
2022-11-20T08:14:53.854Z,6.5
2022-11-20T08:16:11.079Z,6.9
2022-11-20T08:17:27.894Z,7
2022-11-20T08:18:44.874Z,7.1
2022-11-20T08:20:02.067Z,6.9
2022-11-20T08:21:19.001Z,6.3
2022-11-20T08:22:35.868Z,6
2022-11-20T08:23:52.877Z,6.2
2022-11-20T08:25:09.879Z,6.2
2022-11-20T08:26:26.905Z,6.1
2022-11-20T08:27:43.881Z,5.9
2022-11-20T08:29:00.923Z,5.1
2022-11-20T08:30:17.882Z,4.5
2022-11-20T08:31:34.910Z,4.6
2022-11-20T08:32:51.907Z,4.5
2022-11-20T08:34:09.894Z,4.8
2022-11-20T08:35:25.915Z,4.7
2022-11-20T08:36:43.319Z,4.5
2022-11-20T08:38:00.038Z,4.5
2022-11-20T08:39:16.926Z,5.2
2022-11-20T08:40:33.911Z,5.8
2022-11-20T08:41:51.080Z,5.7
2022-11-20T08:43:07.904Z,5.5
2022-11-20T08:44:24.923Z,5.3
2022-11-20T08:45:41.905Z,5.9
2022-11-20T08:46:59.024Z,6.3
2022-11-20T08:48:16.172Z,6.3
2022-11-20T08:49:33.464Z,6.5
2022-11-20T08:50:50.961Z,6.3
2022-11-20T08:52:07.916Z,6.2
2022-11-20T08:53:24.930Z,6.3
2022-11-20T08:54:41.978Z,6.6
2022-11-20T08:55:58.914Z,7.1
2022-11-20T08:57:15.984Z,7.2
2022-11-20T08:58:43.813Z,7
2022-11-20T09:00:05.395Z,7
2022-11-20T09:01:06.946Z,6.7
2022-11-20T09:02:24.217Z,6.8
2022-11-20T09:03:41.943Z,7.6
2022-11-20T09:04:59.029Z,7.8
2022-11-20T09:06:15.927Z,8.2
2022-11-20T09:07:32.996Z,8.4
2022-11-20T09:08:49.929Z,8.7
2022-11-20T09:10:23.448Z,9
2022-11-20T09:11:24.050Z,9
2022-11-20T09:12:41.628Z,8.4
2022-11-20T09:13:58.941Z,7.8
2022-11-20T09:15:15.946Z,7.9
2022-11-20T09:16:32.935Z,7.7
2022-11-20T09:17:49.973Z,7.6
2022-11-20T09:19:33.914Z,7.8
2022-11-20T09:20:23.968Z,8.1
2022-11-20T09:21:40.954Z,8.2
2022-11-20T09:22:57.992Z,7.9
2022-11-20T09:24:14.948Z,7.6
2022-11-20T09:25:32.008Z,7.6
2022-11-20T09:26:48.949Z,7.5
2022-11-20T09:28:06.018Z,7.2
2022-11-20T09:29:23.465Z,6.8
2022-11-20T09:30:40.146Z,6.9
2022-11-20T09:31:57.052Z,6.8
2022-11-20T09:33:13.986Z,6.4
2022-11-20T09:34:30.965Z,6
2022-11-20T09:35:48.030Z,5.8
2022-11-20T09:37:06.453Z,5.5
2022-11-20T09:38:22.395Z,5.9
2022-11-20T09:39:39.022Z,6.5
2022-11-20T09:40:56.028Z,7
2022-11-20T09:42:13.013Z,6.8
2022-11-20T09:43:33.751Z,6.6
2022-11-20T09:44:46.988Z,6.5
2022-11-20T09:46:03.977Z,6.5
2022-11-20T09:47:20.986Z,7
2022-11-20T09:48:38.006Z,7.1
2022-11-20T09:49:54.977Z,6.8
2022-11-20T09:51:11.986Z,6.9
2022-11-20T09:52:28.991Z,6.6
2022-11-20T09:53:46.021Z,6.6
2022-11-20T09:55:03.141Z,6.7
2022-11-20T09:56:22.429Z,6.7
2022-11-20T09:57:36.988Z,7
2022-11-20T09:58:54.014Z,7.4
2022-11-20T10:00:11.156Z,7.8
2022-11-20T10:01:28.271Z,8.1
2022-11-20T10:02:45.148Z,8.2
2022-11-20T10:04:02.156Z,8.5
2022-11-20T10:05:18.999Z,8.6
2022-11-20T10:06:36.044Z,8.4
2022-11-20T10:07:53.021Z,8.4
2022-11-20T10:09:10.121Z,8.4
2022-11-20T10:10:27.024Z,8.3
2022-11-20T10:11:44.009Z,8.3
2022-11-20T10:13:01.065Z,8.8
2022-11-20T10:14:18.046Z,8.6
2022-11-20T10:15:35.093Z,8
2022-11-20T10:16:52.014Z,7.7
2022-11-20T10:18:09.022Z,7.5
2022-11-20T10:19:26.084Z,7
2022-11-20T10:20:43.060Z,6.8
2022-11-20T10:22:00.032Z,6.9
2022-11-20T10:23:20.233Z,6.9
2022-11-20T10:24:34.059Z,6.8
2022-11-20T10:25:51.047Z,6.7
2022-11-20T10:27:08.088Z,6.7
2022-11-20T10:28:25.048Z,6.9
2022-11-20T10:29:42.060Z,7
2022-11-20T10:30:59.089Z,7.1
2022-11-20T10:32:16.078Z,7.3
2022-11-20T10:33:44.201Z,7.4
2022-11-20T10:34:50.069Z,7.1
2022-11-20T10:36:07.061Z,6.9
2022-11-20T10:37:24.059Z,6.8
2022-11-20T10:38:41.111Z,6.4
2022-11-20T10:39:58.066Z,6.3
2022-11-20T10:41:15.047Z,6.1
2022-11-20T10:42:32.101Z,5.9
2022-11-20T10:43:49.083Z,5.7
2022-11-20T10:45:06.710Z,5.5
2022-11-20T10:46:23.100Z,5.4
2022-11-20T10:47:40.095Z,5.6
2022-11-20T10:48:57.093Z,5.9
2022-11-20T10:50:17.675Z,6.4
2022-11-20T10:51:31.078Z,7.3
2022-11-20T10:52:48.162Z,7.8
2022-11-20T10:54:05.084Z,7.7
2022-11-20T10:55:22.144Z,7.7
2022-11-20T10:56:39.069Z,7.8
2022-11-20T10:57:56.075Z,7.5
2022-11-20T10:59:13.084Z,7.4
2022-11-20T11:00:30.142Z,7.7
2022-11-20T11:01:47.271Z,7.8
2022-11-20T11:03:04.184Z,7.7
2022-11-20T11:04:21.589Z,7.9
2022-11-20T11:05:38.401Z,8
2022-11-20T11:06:56.070Z,8
2022-11-20T11:08:13.685Z,8.2
2022-11-20T11:09:30.545Z,7.9
2022-11-20T11:10:49.108Z,7.5
2022-11-20T11:12:07.295Z,7.5
2022-11-20T11:13:23.463Z,7.3
2022-11-20T11:14:40.339Z,7.2
2022-11-20T11:15:57.489Z,7.1
2022-11-20T11:17:14.102Z,6.9
2022-11-20T11:18:31.117Z,7.1
2022-11-20T11:19:48.539Z,7.5
2022-11-20T11:21:06.137Z,7.7
2022-11-20T11:22:23.155Z,7.6
2022-11-20T11:23:40.569Z,7.2
2022-11-20T11:24:58.168Z,6.9
2022-11-20T11:26:15.195Z,6.7
2022-11-20T11:27:32.602Z,6.5
2022-11-20T11:28:50.125Z,6.4
2022-11-20T11:30:07.456Z,6.3
2022-11-20T11:31:26.589Z,6.6
2022-11-20T11:32:43.122Z,6.9
2022-11-20T11:34:00.141Z,7.1
2022-11-20T11:35:18.423Z,7.7
2022-11-20T11:36:36.154Z,7.8
2022-11-20T11:37:54.146Z,7.8
2022-11-20T11:39:11.177Z,7.6
2022-11-20T11:40:28.374Z,7.5
2022-11-20T11:41:46.169Z,7.7
2022-11-20T11:43:03.145Z,7.8
2022-11-20T11:44:21.259Z,8.1
2022-11-20T11:45:38.387Z,8
2022-11-20T11:46:55.189Z,7.6
2022-11-20T11:48:12.288Z,7.5
2022-11-20T11:49:30.190Z,7.4
2022-11-20T11:50:47.145Z,7.4
2022-11-20T11:52:04.287Z,7.2
2022-11-20T11:53:21.177Z,6.9
2022-11-20T11:54:38.522Z,6.6
2022-11-20T11:55:56.172Z,6.4
2022-11-20T11:57:13.175Z,6.3
2022-11-20T11:58:30.458Z,6.1
2022-11-20T11:59:47.154Z,6.3
2022-11-20T12:01:04.640Z,6.5
2022-11-20T12:02:22.691Z,6.7
2022-11-20T12:03:40.182Z,6.6
2022-11-20T12:04:57.175Z,6.5
2022-11-20T12:06:14.402Z,6.3
2022-11-20T12:07:45.857Z,6.3
2022-11-20T12:08:48.371Z,6.3
2022-11-20T12:10:06.193Z,6.4
2022-11-20T12:11:23.165Z,7
2022-11-20T12:12:40.235Z,7.4
2022-11-20T12:13:58.924Z,7.6
2022-11-20T12:15:16.178Z,7.6
2022-11-20T12:16:33.181Z,7.5
2022-11-20T12:17:50.290Z,7.3
2022-11-20T12:19:07.202Z,7.2
2022-11-20T12:20:24.444Z,7.4
2022-11-20T12:21:41.189Z,7.6
2022-11-20T12:22:58.178Z,7.5
2022-11-20T12:27:55.195Z,8.3
2022-11-20T12:29:13.197Z,9.1
2022-11-20T12:30:30.652Z,9.8
2022-11-20T12:31:48.706Z,10.1
2022-11-20T12:33:06.247Z,10.3
2022-11-20T12:34:24.251Z,9.9
2022-11-20T12:35:41.287Z,9.5
2022-11-20T12:36:58.194Z,9.7
2022-11-20T12:38:15.196Z,9.8
2022-11-20T12:39:32.250Z,9.9
2022-11-20T12:40:49.233Z,9.9
2022-11-20T12:42:06.132Z,9.6
2022-11-20T12:43:23.275Z,9.4
2022-11-20T12:44:40.225Z,9.5
2022-11-20T12:45:57.216Z,9.4
2022-11-20T12:47:14.217Z,9.3
2022-11-20T12:48:31.246Z,9.2
2022-11-20T12:49:48.215Z,9.3
2022-11-20T12:51:14.937Z,9.4
2022-11-20T12:52:22.251Z,9.4
2022-11-20T12:53:39.269Z,9.5
2022-11-20T12:54:56.223Z,9.3
2022-11-20T12:56:13.236Z,9.1
2022-11-20T12:57:30.234Z,9.2
2022-11-20T12:58:47.276Z,9.3
2022-11-20T13:00:04.454Z,9.3
2022-11-20T13:01:21.266Z,9.3
2022-11-20T13:02:38.329Z,9.4
2022-11-20T13:03:55.172Z,9.6
2022-11-20T13:05:12.305Z,9.3
2022-11-20T13:06:29.283Z,9.2
2022-11-20T13:07:46.321Z,8.8
2022-11-20T13:09:03.267Z,8.5
2022-11-20T13:10:20.319Z,8.4
2022-11-20T13:11:37.256Z,8.3
2022-11-20T13:12:54.354Z,8.5
2022-11-20T13:14:11.587Z,8.2
2022-11-20T13:15:28.328Z,8.1
2022-11-20T13:16:45.461Z,7.9
2022-11-20T13:18:02.266Z,7.8
2022-11-20T13:19:19.257Z,8.1
2022-11-20T13:20:36.313Z,8.3
2022-11-20T13:21:53.280Z,8.3
2022-11-20T13:23:10.387Z,8.4
2022-11-20T13:24:27.399Z,8.5
2022-11-20T13:25:44.270Z,8.6
2022-11-20T13:27:01.301Z,8.7
2022-11-20T13:28:18.340Z,9.1
2022-11-20T13:29:35.534Z,9.4
2022-11-20T13:30:52.288Z,9.7
2022-11-20T13:32:09.542Z,9.4
2022-11-20T13:33:26.340Z,9.1
2022-11-20T13:34:43.329Z,8.6
2022-11-20T13:36:00.350Z,8.1
2022-11-20T13:37:17.321Z,7.5
2022-11-20T13:38:34.300Z,7.2
2022-11-20T13:39:51.300Z,7
2022-11-20T13:41:08.295Z,7.1
2022-11-20T13:42:26.413Z,7.4
2022-11-20T13:43:43.366Z,7.6
2022-11-20T13:45:01.298Z,8
2022-11-20T13:46:18.319Z,8.4
2022-11-20T13:47:35.369Z,8.6
2022-11-20T13:48:52.307Z,8.5
2022-11-20T13:50:09.368Z,8.4
2022-11-20T13:51:26.345Z,8.5
2022-11-20T13:52:43.383Z,8.2
2022-11-20T13:54:00.306Z,8.2
2022-11-20T13:55:17.330Z,8.5
2022-11-20T13:56:34.312Z,8.4
2022-11-20T13:57:51.398Z,8.1
2022-11-20T13:59:12.133Z,8.1
2022-11-20T14:00:25.499Z,8
2022-11-20T14:01:42.347Z,8.1
2022-11-20T14:02:59.343Z,8.3
2022-11-20T14:04:16.346Z,8.8
2022-11-20T14:05:33.335Z,9
2022-11-20T14:06:50.505Z,9.3
2022-11-20T14:08:07.354Z,9.6
2022-11-20T14:09:24.365Z,9.8
2022-11-20T14:10:41.330Z,9.8
2022-11-20T14:11:58.362Z,9.6
2022-11-20T14:13:15.330Z,9.5
2022-11-20T14:14:32.373Z,9.4
2022-11-20T14:15:49.341Z,9.1
2022-11-20T14:17:06.353Z,8.9
2022-11-20T14:18:23.350Z,8.9
2022-11-20T14:19:40.368Z,8.7
2022-11-20T14:20:57.354Z,8.6
2022-11-20T14:22:14.348Z,8.7
2022-11-20T14:23:31.345Z,9
2022-11-20T14:24:48.370Z,9.4
2022-11-20T14:26:05.996Z,9.8
2022-11-20T14:27:23.368Z,10.1
2022-11-20T14:28:40.397Z,10.4
2022-11-20T14:29:57.377Z,10.6
2022-11-20T14:31:14.375Z,10.8
2022-11-20T14:32:31.384Z,10.9
2022-11-20T14:33:48.386Z,10.9
2022-11-20T14:35:05.496Z,11
2022-11-20T14:36:22.466Z,10.8
2022-11-20T14:37:39.384Z,10.5
2022-11-20T14:38:56.367Z,10.2
2022-11-20T14:40:13.405Z,10.1
2022-11-20T14:41:30.398Z,10
2022-11-20T14:42:47.514Z,10
2022-11-20T14:44:04.421Z,9.9
2022-11-20T14:45:21.421Z,9.8
2022-11-20T14:46:38.394Z,9.6
2022-11-20T14:47:55.387Z,9.6
2022-11-20T14:49:12.418Z,9.5
2022-11-20T14:50:29.378Z,9.3
2022-11-20T14:51:46.407Z,9.1
2022-11-20T14:53:03.397Z,8.9
2022-11-20T14:54:20.415Z,8.8
2022-11-20T14:55:37.399Z,8.6
2022-11-20T14:56:54.437Z,8.5
2022-11-20T14:58:11.447Z,8.3
2022-11-20T14:59:28.390Z,8.2
2022-11-20T15:00:45.424Z,8.1
2022-11-20T15:02:02.574Z,8
2022-11-20T15:03:19.478Z,7.7
2022-11-20T15:04:36.406Z,7.2
2022-11-20T15:05:53.445Z,6.7
2022-11-20T15:07:10.522Z,6.3
2022-11-20T15:08:27.433Z,6.2
2022-11-20T15:09:44.420Z,6
2022-11-20T15:11:01.434Z,5.8
2022-11-20T15:12:18.444Z,5.7
2022-11-20T15:13:35.406Z,5.7
2022-11-20T15:14:52.417Z,5.8
2022-11-20T15:16:09.441Z,5.9
2022-11-20T15:17:26.491Z,6.1
2022-11-20T15:18:43.427Z,6.1
2022-11-20T15:20:00.500Z,6.1
2022-11-20T15:21:17.429Z,6.1
2022-11-20T15:22:34.571Z,6
2022-11-20T15:23:51.428Z,6.1
2022-11-20T15:25:08.704Z,6
2022-11-20T15:26:25.568Z,6
2022-11-20T15:27:42.460Z,5.9
2022-11-20T15:28:59.455Z,5.9
2022-11-20T15:30:16.460Z,5.8
2022-11-20T15:31:33.448Z,5.6
2022-11-20T15:32:50.486Z,5.3
2022-11-20T15:34:07.502Z,5.2
2022-11-20T15:35:24.462Z,5.1
2022-11-20T15:36:41.452Z,5.1
2022-11-20T15:37:58.441Z,5
2022-11-20T15:39:15.543Z,4.9
2022-11-20T15:40:32.484Z,5
2022-11-20T15:41:49.474Z,5.1
2022-11-20T15:43:11.543Z,5
2022-11-20T15:44:24.040Z,4.9
2022-11-20T15:45:40.512Z,4.9
2022-11-20T15:52:36.268Z,4.8
2022-11-20T15:53:47.477Z,4.7
2022-11-20T15:55:09.474Z,4.6
2022-11-20T15:56:21.843Z,4.5
2022-11-20T15:57:38.539Z,4.5
2022-11-20T15:58:55.474Z,4.5
2022-11-20T16:00:12.633Z,4.6
2022-11-20T16:01:29.576Z,4.4
2022-11-20T16:02:46.474Z,4.1
2022-11-20T16:04:03.526Z,3.7
2022-11-20T16:05:20.476Z,3.3
2022-11-20T16:06:37.513Z,2.9
2022-11-20T16:07:54.607Z,2.5
2022-11-20T16:09:11.640Z,2.2
2022-11-20T16:10:28.644Z,1.9
2022-11-20T16:11:45.508Z,1.6
2022-11-20T16:13:02.661Z,1.3
2022-11-20T16:14:19.518Z,1.3
2022-11-20T16:15:36.516Z,1.4
2022-11-20T16:16:53.532Z,1.6
2022-11-20T16:18:10.513Z,1.7
2022-11-20T16:19:27.496Z,1.7
2022-11-20T16:20:44.603Z,1.7
2022-11-20T16:22:03.060Z,1.7
2022-11-20T16:23:18.499Z,1.8
2022-11-20T16:24:35.671Z,1.9
2022-11-20T16:25:52.541Z,1.9
2022-11-20T16:27:09.547Z,2.1
2022-11-20T16:28:27.142Z,2.1
2022-11-20T16:29:45.035Z,2.1
2022-11-20T16:31:01.576Z,2.1
2022-11-20T16:32:18.705Z,2.2
2022-11-20T16:33:35.512Z,2.5
2022-11-20T16:34:52.532Z,2.6
2022-11-20T16:36:09.544Z,2.7
2022-11-20T16:37:26.658Z,2.8
2022-11-20T16:38:43.549Z,3
2022-11-20T16:40:00.518Z,3.1
2022-11-20T16:41:17.610Z,3.1
2022-11-20T16:42:34.528Z,3
2022-11-20T16:43:51.532Z,3
2022-11-20T16:45:08.595Z,2.9
2022-11-20T16:46:25.645Z,2.9
2022-11-20T16:47:42.530Z,3
2022-11-20T16:48:59.604Z,3
2022-11-20T16:50:17.017Z,3
2022-11-20T16:51:33.671Z,2.9
2022-11-20T16:52:51.685Z,2.7
2022-11-20T16:54:08.552Z,2.6
2022-11-20T16:55:25.617Z,2.6
2022-11-20T16:56:42.639Z,2.6
2022-11-20T16:57:59.592Z,2.5
2022-11-20T16:59:16.553Z,2.5
2022-11-20T17:00:33.610Z,2.6
2022-11-20T17:01:50.599Z,2.6
2022-11-20T17:03:07.649Z,2.7
2022-11-20T17:04:25.014Z,2.4
2022-11-20T17:05:42.093Z,2
2022-11-20T17:07:02.595Z,1.5
2022-11-20T17:08:16.738Z,1
2022-11-20T17:09:33.682Z,0.9
2022-11-20T17:10:50.852Z,1.1
2022-11-20T17:12:08.793Z,1.2
2022-11-20T17:13:25.791Z,1.4
2022-11-20T17:14:42.654Z,1.6
2022-11-20T17:16:00.139Z,1.6
2022-11-20T17:17:16.679Z,1.9
2022-11-20T17:18:33.610Z,2
2022-11-20T17:19:50.768Z,1.9
2022-11-20T17:21:07.743Z,1.8
2022-11-20T17:22:25.610Z,1.7
2022-11-20T17:23:42.678Z,1.5
2022-11-20T17:24:59.850Z,1.6
2022-11-20T17:26:16.809Z,1.6
2022-11-20T17:27:33.678Z,1.6
2022-11-20T17:28:50.841Z,1.7
2022-11-20T17:30:08.327Z,1.7
2022-11-20T17:31:25.820Z,1.8
2022-11-20T17:32:45.479Z,1.8
2022-11-20T17:34:02.725Z,1.8
2022-11-20T17:35:19.702Z,1.9
2022-11-20T17:36:39.578Z,1.8
2022-11-20T17:37:53.595Z,1.9
2022-11-20T17:39:10.620Z,2
2022-11-20T17:40:27.961Z,2.1
2022-11-20T17:41:44.619Z,2.2
2022-11-20T17:43:01.609Z,2.2
2022-11-20T17:44:18.976Z,2.1
2022-11-20T17:45:35.685Z,2.1
2022-11-20T17:46:52.596Z,2.1